Time;durP1;ratioP1;P1;durP2;ratioP2;P2;SDS_P1;SDS_P2;PMS_P1;PMS_P2;Temp;Humidity;BMP_temperature;BMP_pressure;BME280_temperature;BME280_humidity;BME280_pressure;Samples;Min_cycle;Max_cycle;Signal;HPM_P1;HPM_P2
2023/09/05 00:00:44;;;;;;;4.70;2.80;;;;;;;;;;107717;297;40437;-38
2023/09/05 00:03:39;;;;;;;5.60;2.60;;;;;;;;;;107728;297;42537;-38
2023/09/05 00:06:15;;;;;;;5.30;2.80;;;;;;;;;;107722;298;42359;-38
2023/09/05 00:08:51;;;;;;;5.60;2.90;;;;;;;;;;107676;297;38567;-38
2023/09/05 00:11:26;;;;;;;5.20;2.70;;;;;;;;;;107742;297;39420;-38
2023/09/05 00:14:01;;;;;;;5.10;2.70;;;;;;;;;;107722;297;42664;-38
2023/09/05 00:16:35;;;;;;;5.30;2.80;;;;;;;;;;107728;297;42206;-38
2023/09/05 00:19:16;;;;;;;5.40;3.00;;;;;;;;;;107676;298;38508;-38
2023/09/05 00:21:50;;;;;;;5.20;2.80;;;;;;;;;;107730;297;39447;-38
2023/09/05 00:24:32;;;;;;;5.00;2.90;;;;;;;;;;107714;298;44132;-38
2023/09/05 00:27:11;;;;;;;4.90;3.00;;;;;;;;;;107733;298;42102;-38
2023/09/05 00:29:46;;;;;;;5.70;2.80;;;;;;;;;;107702;298;39945;-38
2023/09/05 00:32:20;;;;;;;4.50;2.80;;;;;;;;;;107741;297;39826;-38
2023/09/05 00:34:53;;;;;;;4.30;2.40;;;;;;;;;;107730;297;42859;-38
2023/09/05 00:37:26;;;;;;;6.30;3.10;;;;;;;;;;107717;298;41865;-38
2023/09/05 00:40:00;;;;;;;5.30;2.90;;;;;;;;;;107671;297;39955;-38
2023/09/05 00:42:34;;;;;;;4.60;2.60;;;;;;;;;;107610;297;175628;-38
2023/09/05 00:45:10;;;;;;;5.40;3.00;;;;;;;;;;107732;297;43860;-38
2023/09/05 00:47:47;;;;;;;4.70;2.80;;;;;;;;;;107714;298;42093;-38
2023/09/05 00:50:24;;;;;;;5.60;2.90;;;;;;;;;;107670;297;38795;-38
2023/09/05 00:52:57;;;;;;;4.80;3.00;;;;;;;;;;107699;297;40637;-39
2023/09/05 00:55:31;;;;;;;6.20;2.90;;;;;;;;;;107073;297;894553;-38
2023/09/05 00:58:05;;;;;;;5.40;3.00;;;;;;;;;;107700;297;42955;-38
2023/09/05 01:00:40;;;;;;;5.40;2.80;;;;;;;;;;107848;297;46798;-38
2023/09/05 01:03:15;;;;;;;5.50;3.00;;;;;;;;;;107748;297;39979;-38
2023/09/05 01:05:55;;;;;;;5.90;3.20;;;;;;;;;;107714;297;43027;-38
2023/09/05 01:08:33;;;;;;;5.00;2.70;;;;;;;;;;107673;299;42091;-38
2023/09/05 01:11:10;;;;;;;5.30;3.10;;;;;;;;;;107687;298;46217;-38
2023/09/05 01:13:43;;;;;;;5.70;3.20;;;;;;;;;;107666;298;39612;-38
2023/09/05 01:16:16;;;;;;;5.70;3.00;;;;;;;;;;107654;298;42883;-38
2023/09/05 01:18:49;;;;;;;5.30;3.10;;;;;;;;;;107645;298;43358;-38
2023/09/05 01:21:35;;;;;;;5.10;3.20;;;;;;;;;;107660;298;45964;-38
2023/09/05 01:24:19;;;;;;;5.40;3.10;;;;;;;;;;107655;298;39423;-38
2023/09/05 01:26:57;;;;;;;5.80;3.30;;;;;;;;;;107654;298;42892;-38
2023/09/05 01:29:36;;;;;;;5.30;3.10;;;;;;;;;;107610;298;42111;-38
2023/09/05 01:32:12;;;;;;;5.70;3.10;;;;;;;;;;107636;298;38902;-39
2023/09/05 01:34:47;;;;;;;5.60;3.20;;;;;;;;;;107652;298;39577;-39
2023/09/05 01:37:21;;;;;;;5.00;3.20;;;;;;;;;;107644;298;42807;-39
2023/09/05 01:39:57;;;;;;;5.50;3.30;;;;;;;;;;107626;299;43290;-39
2023/09/05 01:42:30;;;;;;;5.00;3.10;;;;;;;;;;107676;299;38741;-39
2023/09/05 01:45:04;;;;;;;5.50;3.10;;;;;;;;;;107664;298;39445;-39
2023/09/05 01:47:39;;;;;;;5.30;3.10;;;;;;;;;;107660;298;44000;-38
2023/09/05 01:50:15;;;;;;;4.80;3.20;;;;;;;;;;107648;298;42046;-38
2023/09/05 01:52:48;;;;;;;5.60;3.20;;;;;;;;;;107682;298;38725;-38
2023/09/05 01:55:21;;;;;;;6.20;3.30;;;;;;;;;;107660;298;39668;-39
2023/09/05 01:57:55;;;;;;;5.00;3.10;;;;;;;;;;107650;299;42863;-39
2023/09/05 02:00:28;;;;;;;6.10;3.40;;;;;;;;;;107624;299;43290;-38
2023/09/05 02:03:04;;;;;;;6.00;3.60;;;;;;;;;;107627;298;39832;-38
2023/09/05 02:05:40;;;;;;;5.50;3.30;;;;;;;;;;107665;298;39579;-38
2023/09/05 02:08:15;;;;;;;5.50;3.30;;;;;;;;;;107694;297;43031;-38
2023/09/05 02:10:49;;;;;;;6.10;3.60;;;;;;;;;;107669;297;41773;-38
2023/09/05 02:13:22;;;;;;;4.90;3.30;;;;;;;;;;107716;297;40056;-38
2023/09/05 02:15:59;;;;;;;5.60;3.30;;;;;;;;;;107617;297;175569;-38
2023/09/05 02:18:36;;;;;;;6.00;3.20;;;;;;;;;;107710;297;44202;-38
2023/09/05 02:21:09;;;;;;;5.80;3.40;;;;;;;;;;107673;297;43167;-38
2023/09/05 02:23:42;;;;;;;4.90;3.10;;;;;;;;;;107685;297;38685;-38
2023/09/05 02:26:16;;;;;;;5.70;3.40;;;;;;;;;;107737;297;39607;-38
2023/09/05 02:28:51;;;;;;;5.00;3.10;;;;;;;;;;107716;297;44364;-38
2023/09/05 02:31:25;;;;;;;5.50;3.60;;;;;;;;;;107717;297;42384;-38
2023/09/05 02:34:00;;;;;;;5.50;3.50;;;;;;;;;;107584;298;176325;-38
2023/09/05 02:36:35;;;;;;;5.80;3.40;;;;;;;;;;107738;298;39582;-38
2023/09/05 02:39:12;;;;;;;5.90;3.40;;;;;;;;;;107721;297;44056;-38
2023/09/05 02:41:50;;;;;;;5.50;3.20;;;;;;;;;;107696;297;41819;-38
2023/09/05 02:44:25;;;;;;;6.10;3.30;;;;;;;;;;107724;297;38788;-38
2023/09/05 02:46:59;;;;;;;5.90;3.40;;;;;;;;;;107699;298;39677;-38
2023/09/05 02:49:34;;;;;;;5.60;3.50;;;;;;;;;;107723;297;42923;-38
2023/09/05 02:52:12;;;;;;;6.50;3.60;;;;;;;;;;107670;297;43344;-38
2023/09/05 02:54:45;;;;;;;5.80;3.50;;;;;;;;;;107066;298;893827;-38
2023/09/05 02:57:19;;;;;;;5.40;3.60;;;;;;;;;;107708;297;39695;-38
2023/09/05 02:59:54;;;;;;;5.20;3.70;;;;;;;;;;107696;297;42852;-38
2023/09/05 03:02:28;;;;;;;5.20;3.40;;;;;;;;;;107662;297;42058;-38
2023/09/05 03:05:05;;;;;;;5.50;3.50;;;;;;;;;;107586;297;175597;-38
2023/09/05 03:07:38;;;;;;;5.60;3.40;;;;;;;;;;107711;297;39637;-38
2023/09/05 03:10:14;;;;;;;6.00;3.80;;;;;;;;;;107653;298;42828;-38
2023/09/05 03:12:47;;;;;;;4.90;3.30;;;;;;;;;;107670;297;42124;-38
2023/09/05 03:15:23;;;;;;;5.10;3.10;;;;;;;;;;107715;298;38671;-38
2023/09/05 03:17:58;;;;;;;5.90;3.70;;;;;;;;;;107656;297;39704;-38
2023/09/05 03:20:34;;;;;;;6.90;3.60;;;;;;;;;;107749;297;42853;-38
2023/09/05 03:23:11;;;;;;;5.90;3.50;;;;;;;;;;107674;297;42464;-38
2023/09/05 03:25:45;;;;;;;5.40;3.30;;;;;;;;;;107749;297;38930;-38
2023/09/05 03:28:19;;;;;;;6.30;3.60;;;;;;;;;;107707;297;39643;-38
2023/09/05 03:30:53;;;;;;;4.80;3.40;;;;;;;;;;107054;297;894958;-38
2023/09/05 03:33:27;;;;;;;5.20;3.70;;;;;;;;;;107688;297;42180;-38
2023/09/05 03:36:03;;;;;;;5.70;3.60;;;;;;;;;;107724;297;39982;-38
2023/09/05 03:38:36;;;;;;;6.10;3.80;;;;;;;;;;107737;297;40327;-38
2023/09/05 03:41:16;;;;;;;4.70;3.30;;;;;;;;;;107685;297;42865;-38
2023/09/05 03:43:49;;;;;;;5.20;3.70;;;;;;;;;;107682;298;43321;-38
2023/09/05 03:46:25;;;;;;;5.50;3.50;;;;;;;;;;107699;297;38494;-38
2023/09/05 03:48:58;;;;;;;5.00;3.40;;;;;;;;;;107725;297;39670;-38
2023/09/05 03:51:37;;;;;;;5.30;3.30;;;;;;;;;;107703;297;43059;-38
2023/09/05 03:54:12;;;;;;;5.60;3.50;;;;;;;;;;107717;297;42224;-38
2023/09/05 03:56:46;;;;;;;5.80;3.70;;;;;;;;;;107577;297;193260;-38
2023/09/05 03:59:21;;;;;;;5.50;3.50;;;;;;;;;;107708;298;40906;-38
2023/09/05 04:01:55;;;;;;;5.30;3.70;;;;;;;;;;107672;297;42835;-38
2023/09/05 04:04:31;;;;;;;6.10;3.80;;;;;;;;;;107720;297;47695;-38
2023/09/05 04:07:06;;;;;;;5.00;3.50;;;;;;;;;;107777;297;38687;-38
2023/09/05 04:09:42;;;;;;;5.50;3.60;;;;;;;;;;107731;298;39693;-38
2023/09/05 04:12:20;;;;;;;5.70;3.50;;;;;;;;;;107714;298;42669;-38
2023/09/05 04:15:11;;;;;;;5.10;3.40;;;;;;;;;;107693;298;48716;-37
2023/09/05 04:17:44;;;;;;;5.50;3.60;;;;;;;;;;107730;298;40118;-37
2023/09/05 04:20:21;;;;;;;6.10;3.60;;;;;;;;;;107633;297;175574;-37
2023/09/05 04:22:56;;;;;;;5.40;3.40;;;;;;;;;;107718;297;43394;-37
2023/09/05 04:25:40;;;;;;;5.70;3.50;;;;;;;;;;107718;297;48140;-37
2023/09/05 04:28:13;;;;;;;5.30;3.30;;;;;;;;;;107733;298;38752;-37
2023/09/05 04:30:49;;;;;;;5.60;3.70;;;;;;;;;;107729;298;39759;-37
2023/09/05 04:33:25;;;;;;;6.90;3.80;;;;;;;;;;107698;298;43152;-37
2023/09/05 04:36:04;;;;;;;6.10;3.50;;;;;;;;;;107725;297;42294;-37
2023/09/05 04:38:38;;;;;;;5.70;3.80;;;;;;;;;;107714;297;38809;-37
2023/09/05 04:41:13;;;;;;;5.70;3.50;;;;;;;;;;107718;297;39983;-37
2023/09/05 04:43:48;;;;;;;6.50;4.10;;;;;;;;;;107678;298;43042;-37
2023/09/05 04:46:24;;;;;;;6.20;3.70;;;;;;;;;;107719;297;41879;-37
2023/09/05 04:49:03;;;;;;;6.00;4.00;;;;;;;;;;107740;297;38774;-37
2023/09/05 04:51:38;;;;;;;5.70;3.70;;;;;;;;;;107728;297;41044;-37
2023/09/05 04:54:15;;;;;;;5.70;3.60;;;;;;;;;;107703;297;44045;-37
2023/09/05 04:56:53;;;;;;;5.80;3.80;;;;;;;;;;107720;297;43150;-37
2023/09/05 04:59:26;;;;;;;7.20;3.70;;;;;;;;;;107685;297;38890;-37
2023/09/05 05:02:04;;;;;;;5.50;3.90;;;;;;;;;;107741;297;39551;-37
2023/09/05 05:04:42;;;;;;;5.60;3.70;;;;;;;;;;107621;297;42534;-38
2023/09/05 05:07:16;;;;;;;6.40;3.90;;;;;;;;;;107722;297;42015;-37
2023/09/05 05:09:51;;;;;;;5.50;3.80;;;;;;;;;;107438;297;369144;-37
2023/09/05 05:12:26;;;;;;;5.60;3.80;;;;;;;;;;107717;297;39634;-37
2023/09/05 05:15:05;;;;;;;5.80;3.30;;;;;;;;;;107017;297;895343;-37
2023/09/05 05:17:40;;;;;;;6.10;3.70;;;;;;;;;;107692;297;42095;-37
2023/09/05 05:20:19;;;;;;;6.20;3.70;;;;;;;;;;107720;297;39643;-38
2023/09/05 05:22:59;;;;;;;6.00;3.70;;;;;;;;;;107709;298;39433;-37
2023/09/05 05:25:34;;;;;;;6.40;3.70;;;;;;;;;;107666;297;42840;-37
2023/09/05 05:28:09;;;;;;;6.10;3.60;;;;;;;;;;107695;297;42042;-38
2023/09/05 05:30:44;;;;;;;5.40;3.50;;;;;;;;;;107695;297;39829;-38
2023/09/05 05:33:19;;;;;;;5.80;3.50;;;;;;;;;;107704;298;39830;-38
2023/09/05 05:35:58;;;;;;;5.40;3.50;;;;;;;;;;107574;297;175581;-38
2023/09/05 05:38:31;;;;;;;5.80;3.90;;;;;;;;;;107717;298;42064;-38
2023/09/05 05:41:11;;;;;;;5.30;3.60;;;;;;;;;;107727;297;38854;-38
2023/09/05 05:43:45;;;;;;;5.70;3.80;;;;;;;;;;107735;297;39793;-38
2023/09/05 05:46:18;;;;;;;6.00;3.90;;;;;;;;;;107696;297;43034;-38
2023/09/05 05:48:57;;;;;;;6.60;3.90;;;;;;;;;;107726;298;41825;-39
2023/09/05 05:51:34;;;;;;;5.50;3.90;;;;;;;;;;107748;297;38582;-37
2023/09/05 05:54:09;;;;;;;5.60;3.50;;;;;;;;;;107745;297;40822;-38
2023/09/05 05:56:45;;;;;;;5.20;3.50;;;;;;;;;;107673;298;42971;-38
2023/09/05 05:59:21;;;;;;;7.10;3.40;;;;;;;;;;107712;297;41807;-38
2023/09/05 06:01:55;;;;;;;6.10;3.70;;;;;;;;;;107736;297;38519;-38
2023/09/05 06:04:35;;;;;;;6.40;3.90;;;;;;;;;;107717;297;39771;-37
2023/09/05 06:07:10;;;;;;;5.30;3.30;;;;;;;;;;107678;297;42555;-38
2023/09/05 06:09:44;;;;;;;5.70;3.60;;;;;;;;;;107738;297;42088;-38
2023/09/05 06:12:21;;;;;;;5.60;3.80;;;;;;;;;;107710;298;39996;-38
2023/09/05 06:14:56;;;;;;;5.60;3.80;;;;;;;;;;107736;297;39609;-37
2023/09/05 06:17:30;;;;;;;5.70;3.70;;;;;;;;;;107692;297;42845;-38
2023/09/05 06:20:04;;;;;;;5.10;3.50;;;;;;;;;;107702;301;42077;-38
2023/09/05 06:22:44;;;;;;;5.70;3.70;;;;;;;;;;107746;298;39988;-38
2023/09/05 06:25:18;;;;;;;5.50;3.50;;;;;;;;;;107740;297;39328;-38
2023/09/05 06:27:53;;;;;;;6.30;3.80;;;;;;;;;;107670;297;48844;-38
2023/09/05 06:30:28;;;;;;;6.80;3.60;;;;;;;;;;107617;298;175616;-38
2023/09/05 06:33:05;;;;;;;5.90;3.50;;;;;;;;;;107713;297;39962;-38
2023/09/05 06:35:44;;;;;;;6.10;3.90;;;;;;;;;;107695;297;39818;-38
2023/09/05 06:38:23;;;;;;;6.30;3.70;;;;;;;;;;107715;297;48857;-38
2023/09/05 06:41:06;;;;;;;6.50;3.80;;;;;;;;;;107730;298;43456;-38
2023/09/05 06:43:40;;;;;;;5.90;3.50;;;;;;;;;;107752;297;38746;-38
2023/09/05 06:46:14;;;;;;;6.10;3.70;;;;;;;;;;107688;297;39631;-38
2023/09/05 06:48:50;;;;;;;6.20;3.70;;;;;;;;;;107736;297;43462;-38
2023/09/05 06:51:27;;;;;;;6.90;3.90;;;;;;;;;;107708;297;42496;-37
2023/09/05 06:54:03;;;;;;;6.90;3.90;;;;;;;;;;107704;297;38759;-38
2023/09/05 06:56:41;;;;;;;7.80;4.10;;;;;;;;;;107528;290;175718;-41
2023/09/05 06:59:18;;;;;;;7.50;3.80;;;;;;;;;;107692;290;42769;-41
2023/09/05 07:01:52;;;;;;;7.80;3.70;;;;;;;;;;107690;290;42356;-41
2023/09/05 07:04:31;;;;;;;6.60;4.00;;;;;;;;;;107652;289;38673;-41
2023/09/05 07:07:12;;;;;;;6.80;4.00;;;;;;;;;;107650;298;40871;-42
2023/09/05 07:09:45;;;;;;;8.70;4.60;;;;;;;;;;107657;293;42551;-43
2023/09/05 07:12:19;;;;;;;7.80;4.40;;;;;;;;;;107686;289;42011;-41
2023/09/05 07:14:54;;;;;;;8.70;4.60;;;;;;;;;;107687;290;38518;-40
2023/09/05 07:17:30;;;;;;;8.00;4.30;;;;;;;;;;107679;289;39603;-40
2023/09/05 07:20:06;;;;;;;7.90;4.40;;;;;;;;;;107686;290;42788;-40
2023/09/05 07:22:40;;;;;;;6.70;4.00;;;;;;;;;;107664;297;42010;-40
2023/09/05 07:25:15;;;;;;;7.70;4.30;;;;;;;;;;107707;290;38890;-40
2023/09/05 07:27:49;;;;;;;7.80;4.40;;;;;;;;;;107652;293;39936;-40
2023/09/05 07:30:22;;;;;;;7.40;4.10;;;;;;;;;;107686;289;44406;-40
2023/09/05 07:33:00;;;;;;;8.30;4.00;;;;;;;;;;107669;298;43439;-40
2023/09/05 07:35:37;;;;;;;7.70;3.80;;;;;;;;;;107654;290;38564;-40
2023/09/05 07:38:15;;;;;;;6.80;4.30;;;;;;;;;;107653;293;39660;-40
2023/09/05 07:40:50;;;;;;;6.60;4.00;;;;;;;;;;107694;293;42926;-39
2023/09/05 07:43:32;;;;;;;7.30;3.60;;;;;;;;;;107707;290;42218;-40
2023/09/05 07:46:13;;;;;;;7.20;3.50;;;;;;;;;;107701;294;38459;-40
2023/09/05 07:48:49;;;;;;;7.00;4.20;;;;;;;;;;107555;294;175611;-40
2023/09/05 07:51:23;;;;;;;6.80;3.60;;;;;;;;;;107680;294;42678;-40
2023/09/05 07:54:14;;;;;;;6.40;3.50;;;;;;;;;;107718;293;43282;-39
2023/09/05 07:56:50;;;;;;;6.20;3.70;;;;;;;;;;107675;290;38724;-40
2023/09/05 07:59:23;;;;;;;6.60;3.60;;;;;;;;;;107644;289;39803;-40
2023/09/05 08:01:56;;;;;;;6.80;3.60;;;;;;;;;;107690;290;43048;-44
2023/09/05 08:04:30;;;;;;;7.50;3.50;;;;;;;;;;107696;290;42044;-44
2023/09/05 08:07:03;;;;;;;6.10;3.10;;;;;;;;;;107678;290;38472;-44
2023/09/05 08:09:37;;;;;;;6.70;3.50;;;;;;;;;;107631;290;40752;-41
2023/09/05 08:12:11;;;;;;;6.30;3.20;;;;;;;;;;107683;290;42760;-43
2023/09/05 08:14:45;;;;;;;5.70;3.10;;;;;;;;;;107679;290;41787;-45
2023/09/05 08:17:19;;;;;;;5.60;3.10;;;;;;;;;;107696;297;38810;-46
2023/09/05 08:19:53;;;;;;;5.20;3.10;;;;;;;;;;107659;294;39718;-46
2023/09/05 08:22:33;;;;;;;5.10;3.00;;;;;;;;;;107695;290;42544;-44
2023/09/05 08:25:23;;;;;;;5.60;3.00;;;;;;;;;;107046;290;909476;-44
2023/09/05 08:28:04;;;;;;;5.50;3.10;;;;;;;;;;107695;290;38862;-45
2023/09/05 08:30:41;;;;;;;6.40;2.80;;;;;;;;;;107709;290;46144;-43
2023/09/05 08:33:16;;;;;;;5.60;3.20;;;;;;;;;;107709;290;42991;-39
2023/09/05 08:35:56;;;;;;;5.60;2.80;;;;;;;;;;107702;297;42012;-43
2023/09/05 08:38:31;;;;;;;5.40;2.80;;;;;;;;;;107632;290;38998;-43
2023/09/05 08:41:09;;;;;;;5.50;2.90;;;;;;;;;;107674;290;39520;-45
2023/09/05 08:43:42;;;;;;;5.50;2.80;;;;;;;;;;107688;297;42936;-45
2023/09/05 08:46:19;;;;;;;5.60;3.00;;;;;;;;;;107690;289;42427;-41
2023/09/05 08:48:55;;;;;;;5.10;2.60;;;;;;;;;;107635;303;38748;-41
2023/09/05 08:51:41;;;;;;;6.60;2.90;;;;;;;;;;107705;289;39976;-46
2023/09/05 08:54:17;;;;;;;4.50;2.50;;;;;;;;;;107538;293;175553;-44
2023/09/05 08:56:52;;;;;;;4.60;2.50;;;;;;;;;;107684;297;41833;-44
2023/09/05 08:59:27;;;;;;;5.60;2.70;;;;;;;;;;107701;289;38864;-47
2023/09/05 09:02:09;;;;;;;5.10;2.60;;;;;;;;;;107678;290;39883;-44
2023/09/05 09:04:58;;;;;;;6.50;2.70;;;;;;;;;;107687;290;44217;-42
2023/09/05 09:07:35;;;;;;;5.30;2.90;;;;;;;;;;107676;294;41798;-44
2023/09/05 09:10:25;;;;;;;5.60;3.00;;;;;;;;;;107656;290;38658;-42
2023/09/05 09:13:24;;;;;;;5.50;2.70;;;;;;;;;;107677;297;39565;-45
2023/09/05 09:16:06;;;;;;;4.60;2.60;;;;;;;;;;107724;297;42556;-40
2023/09/05 09:18:41;;;;;;;5.00;2.60;;;;;;;;;;107564;290;42368;-45
2023/09/05 09:21:25;;;;;;;5.10;2.70;;;;;;;;;;107646;297;38679;-45
2023/09/05 09:24:16;;;;;;;4.50;2.70;;;;;;;;;;107682;289;40723;-45
2023/09/05 09:26:56;;;;;;;5.40;2.80;;;;;;;;;;107054;289;892441;-42
2023/09/05 09:29:37;;;;;;;4.70;2.50;;;;;;;;;;107663;293;42087;-41
2023/09/05 09:32:14;;;;;;;4.80;2.70;;;;;;;;;;107681;297;38543;-43
2023/09/05 09:35:11;;;;;;;4.40;2.50;;;;;;;;;;107717;297;39597;-42
2023/09/05 09:37:50;;;;;;;4.90;2.70;;;;;;;;;;107707;290;42839;-43
2023/09/05 09:40:27;;;;;;;7.00;2.80;;;;;;;;;;107553;289;175565;-45
2023/09/05 09:43:01;;;;;;;4.60;2.60;;;;;;;;;;107721;290;38712;-43
2023/09/05 09:45:39;;;;;;;4.80;2.50;;;;;;;;;;107719;290;39880;-43
2023/09/05 09:48:17;;;;;;;4.80;2.50;;;;;;;;;;107664;290;43969;-43
2023/09/05 09:50:52;;;;;;;4.60;2.50;;;;;;;;;;107669;297;42103;-43
2023/09/05 09:53:34;;;;;;;5.10;2.50;;;;;;;;;;107719;293;38801;-43
2023/09/05 09:56:15;;;;;;;4.90;2.80;;;;;;;;;;107699;293;40981;-43
2023/09/05 09:58:56;;;;;;;4.90;2.60;;;;;;;;;;107671;290;43096;-44
2023/09/05 10:01:32;;;;;;;5.00;2.60;;;;;;;;;;107655;294;43492;-43
2023/09/05 10:04:10;;;;;;;5.00;2.60;;;;;;;;;;107704;290;38965;-43
2023/09/05 10:06:45;;;;;;;5.30;2.90;;;;;;;;;;107714;290;39336;-43
2023/09/05 10:09:25;;;;;;;4.70;2.60;;;;;;;;;;107660;294;43897;-46
2023/09/05 10:12:00;;;;;;;4.70;2.40;;;;;;;;;;107643;297;43137;-42
2023/09/05 10:14:37;;;;;;;5.00;2.60;;;;;;;;;;107680;290;38761;-45
2023/09/05 10:17:13;;;;;;;4.90;2.70;;;;;;;;;;107706;290;39642;-44
2023/09/05 10:19:51;;;;;;;4.40;2.30;;;;;;;;;;107693;291;43074;-44
2023/09/05 10:22:27;;;;;;;4.80;2.70;;;;;;;;;;107677;290;42146;-44
2023/09/05 10:25:01;;;;;;;4.30;2.30;;;;;;;;;;107574;290;175555;-44
2023/09/05 10:27:35;;;;;;;5.30;2.60;;;;;;;;;;107728;290;40842;-44
2023/09/05 10:30:12;;;;;;;4.50;2.40;;;;;;;;;;107670;290;42830;-44
2023/09/05 10:32:49;;;;;;;4.20;2.60;;;;;;;;;;107683;294;43468;-44
2023/09/05 10:35:23;;;;;;;5.70;2.90;;;;;;;;;;107709;290;38725;-44
2023/09/05 10:38:03;;;;;;;4.60;2.70;;;;;;;;;;107702;290;39667;-44
2023/09/05 10:40:40;;;;;;;5.10;2.90;;;;;;;;;;107682;290;44553;-44
2023/09/05 10:43:22;;;;;;;4.20;2.60;;;;;;;;;;107714;290;48017;-44
2023/09/05 10:46:03;;;;;;;4.90;2.80;;;;;;;;;;107685;290;38713;-44
2023/09/05 10:48:40;;;;;;;5.90;3.00;;;;;;;;;;107078;294;892858;-44
2023/09/05 10:51:18;;;;;;;4.60;2.60;;;;;;;;;;107714;297;42875;-44
2023/09/05 10:53:52;;;;;;;4.90;2.70;;;;;;;;;;107038;290;892675;-45
2023/09/05 10:56:44;;;;;;;4.50;2.60;;;;;;;;;;107692;294;38475;-44
2023/09/05 10:59:27;;;;;;;;;;;;;;;;;;107722;294;39672;-44
2023/09/05 11:02:05;;;;;;;5.20;2.80;;;;;;;;;;107653;294;43086;-44
2023/09/05 11:04:39;;;;;;;5.40;2.50;;;;;;;;;;107683;290;41950;-44
2023/09/05 11:07:14;;;;;;;4.70;3.00;;;;;;;;;;107713;290;38757;-44
2023/09/05 11:09:54;;;;;;;4.80;3.00;;;;;;;;;;107701;294;39636;-45
2023/09/05 11:12:28;;;;;;;5.50;2.80;;;;;;;;;;107672;290;44091;-44
2023/09/05 11:15:02;;;;;;;4.80;2.70;;;;;;;;;;107698;290;42005;-44
2023/09/05 11:17:37;;;;;;;5.10;3.20;;;;;;;;;;107674;290;38730;-44
2023/09/05 11:20:18;;;;;;;5.00;2.90;;;;;;;;;;107677;290;39720;-44
2023/09/05 11:22:51;;;;;;;5.30;3.20;;;;;;;;;;107665;294;42860;-44
2023/09/05 11:25:24;;;;;;;4.80;3.00;;;;;;;;;;107710;294;42196;-44
2023/09/05 11:28:00;;;;;;;5.90;3.10;;;;;;;;;;107655;290;38890;-44
2023/09/05 11:30:38;;;;;;;5.90;3.30;;;;;;;;;;107694;290;39928;-44
2023/09/05 11:33:14;;;;;;;5.20;2.90;;;;;;;;;;107646;291;42768;-44
2023/09/05 11:35:49;;;;;;;5.70;3.20;;;;;;;;;;107703;290;42230;-44
2023/09/05 11:38:26;;;;;;;4.70;2.80;;;;;;;;;;107622;290;175562;-44
2023/09/05 11:41:05;;;;;;;4.90;2.90;;;;;;;;;;107689;294;39741;-44
2023/09/05 11:43:50;;;;;;;5.60;3.00;;;;;;;;;;107642;290;44094;-44
2023/09/05 11:46:25;;;;;;;5.00;3.00;;;;;;;;;;107719;290;41767;-44
2023/09/05 11:49:03;;;;;;;7.30;3.60;;;;;;;;;;107685;297;38819;-44
2023/09/05 11:51:37;;;;;;;7.50;3.60;;;;;;;;;;107676;290;39778;-44
2023/09/05 11:54:11;;;;;;;6.50;3.40;;;;;;;;;;107646;290;44361;-44
2023/09/05 11:56:45;;;;;;;5.60;3.50;;;;;;;;;;107683;297;42009;-44
2023/09/05 11:59:23;;;;;;;6.30;3.80;;;;;;;;;;107692;289;38828;-44
2023/09/05 12:02:15;;;;;;;6.40;3.20;;;;;;;;;;107697;290;39833;-45
2023/09/05 12:04:53;;;;;;;5.60;3.30;;;;;;;;;;107628;290;48877;-46
2023/09/05 12:07:28;;;;;;;6.50;3.50;;;;;;;;;;107713;290;42061;-46
2023/09/05 12:10:01;;;;;;;5.50;3.40;;;;;;;;;;107662;290;38748;-45
2023/09/05 12:12:35;;;;;;;5.40;3.30;;;;;;;;;;107661;290;39646;-42
2023/09/05 12:15:12;;;;;;;5.60;3.10;;;;;;;;;;107668;290;49651;-44
2023/09/05 12:17:50;;;;;;;6.20;3.60;;;;;;;;;;107687;290;42010;-46
2023/09/05 12:20:26;;;;;;;5.70;3.50;;;;;;;;;;107709;290;38787;-43
2023/09/05 12:23:01;;;;;;;5.40;3.20;;;;;;;;;;107569;297;193594;-44
2023/09/05 12:25:35;;;;;;;5.60;3.10;;;;;;;;;;107698;293;48940;-43
2023/09/05 12:28:30;;;;;;;5.30;3.80;;;;;;;;;;107686;297;42195;-43
2023/09/05 12:31:12;;;;;;;5.70;3.30;;;;;;;;;;107518;290;175546;-42
2023/09/05 12:33:50;;;;;;;6.10;3.10;;;;;;;;;;107615;290;39586;-42
2023/09/05 12:36:29;;;;;;;5.40;3.20;;;;;;;;;;107670;290;42933;-46
2023/09/05 12:39:03;;;;;;;5.80;3.20;;;;;;;;;;107637;290;42236;-42
2023/09/05 12:41:39;;;;;;;6.50;3.40;;;;;;;;;;107739;295;38690;-42
2023/09/05 12:44:12;;;;;;;5.00;2.80;;;;;;;;;;107644;290;40879;-41
2023/09/05 12:46:45;;;;;;;4.90;3.10;;;;;;;;;;107686;290;42786;-41
2023/09/05 12:49:20;;;;;;;5.60;3.30;;;;;;;;;;107607;289;175553;-43
2023/09/05 12:51:55;;;;;;;5.70;3.20;;;;;;;;;;107697;290;39964;-40
2023/09/05 12:54:29;;;;;;;6.90;3.30;;;;;;;;;;107636;290;39927;-43
2023/09/05 12:57:05;;;;;;;5.30;3.20;;;;;;;;;;107682;290;42894;-44
2023/09/05 12:59:41;;;;;;;5.90;3.20;;;;;;;;;;107710;290;43378;-41
2023/09/05 13:02:14;;;;;;;6.00;3.50;;;;;;;;;;107021;297;893455;-44
2023/09/05 13:04:49;;;;;;;5.50;3.10;;;;;;;;;;107651;289;39676;-44
2023/09/05 13:07:26;;;;;;;5.60;3.00;;;;;;;;;;107669;290;42892;-45
2023/09/05 13:09:59;;;;;;;5.60;3.30;;;;;;;;;;107498;290;317271;-44
2023/09/05 13:12:33;;;;;;;5.00;3.30;;;;;;;;;;107573;290;175556;-44
2023/09/05 13:15:12;;;;;;;5.60;3.20;;;;;;;;;;107635;293;39836;-44
2023/09/05 13:17:48;;;;;;;5.30;3.30;;;;;;;;;;107699;289;44575;-44
2023/09/05 13:20:24;;;;;;;5.60;3.10;;;;;;;;;;107730;290;41947;-44
2023/09/05 13:22:57;;;;;;;5.30;2.90;;;;;;;;;;107670;289;38548;-44
2023/09/05 13:25:33;;;;;;;5.10;2.90;;;;;;;;;;107655;297;39386;-44
2023/09/05 13:28:10;;;;;;;5.10;3.00;;;;;;;;;;107665;294;42798;-44
2023/09/05 13:30:44;;;;;;;5.50;3.00;;;;;;;;;;107731;290;42112;-44
2023/09/05 13:33:19;;;;;;;5.40;2.90;;;;;;;;;;107707;293;39896;-45
2023/09/05 13:35:53;;;;;;;4.90;2.80;;;;;;;;;;107649;290;39935;-44
2023/09/05 13:38:26;;;;;;;5.60;2.90;;;;;;;;;;107559;290;175139;-45
2023/09/05 13:41:01;;;;;;;5.40;2.90;;;;;;;;;;107697;297;42386;-45
2023/09/05 13:43:34;;;;;;;4.70;2.90;;;;;;;;;;107712;290;38673;-45
2023/09/05 13:46:08;;;;;;;5.70;2.90;;;;;;;;;;107649;290;39988;-44
2023/09/05 13:48:45;;;;;;;5.20;2.60;;;;;;;;;;107692;290;43021;-45
2023/09/05 13:51:22;;;;;;;5.60;2.90;;;;;;;;;;107636;290;42100;-44
2023/09/05 13:53:56;;;;;;;5.40;2.80;;;;;;;;;;107663;290;38832;-44
2023/09/05 13:56:29;;;;;;;5.10;3.00;;;;;;;;;;107668;290;39622;-44
2023/09/05 13:59:11;;;;;;;5.10;2.70;;;;;;;;;;107692;293;43130;-44
2023/09/05 14:01:45;;;;;;;5.40;2.70;;;;;;;;;;107682;290;41857;-44
2023/09/05 14:04:26;;;;;;;5.80;3.00;;;;;;;;;;107720;297;38783;-45
2023/09/05 14:07:03;;;;;;;4.70;2.90;;;;;;;;;;107669;290;41034;-44
2023/09/05 14:09:41;;;;;;;5.20;2.80;;;;;;;;;;107688;290;42830;-45
2023/09/05 14:12:23;;;;;;;5.50;2.90;;;;;;;;;;107722;290;42025;-44
2023/09/05 14:14:59;;;;;;;5.50;2.70;;;;;;;;;;107692;290;38697;-44
2023/09/05 14:17:34;;;;;;;4.90;2.70;;;;;;;;;;107676;290;39631;-44
2023/09/05 14:20:12;;;;;;;4.80;2.90;;;;;;;;;;107673;290;42992;-44
2023/09/05 14:22:45;;;;;;;4.90;2.60;;;;;;;;;;107718;290;42110;-44
2023/09/05 14:25:19;;;;;;;5.00;2.70;;;;;;;;;;107673;290;38710;-44
2023/09/05 14:27:52;;;;;;;4.90;2.50;;;;;;;;;;107791;290;46409;-44
2023/09/05 14:30:27;;;;;;;4.80;2.80;;;;;;;;;;107662;293;45131;-44
2023/09/05 14:33:08;;;;;;;4.70;2.70;;;;;;;;;;107676;290;42033;-44
2023/09/05 14:35:44;;;;;;;4.70;2.60;;;;;;;;;;107662;290;38836;-44
2023/09/05 14:38:22;;;;;;;4.80;2.50;;;;;;;;;;107686;290;46976;-44
2023/09/05 14:40:58;;;;;;;4.90;2.60;;;;;;;;;;107695;294;44035;-44
2023/09/05 14:43:33;;;;;;;4.90;2.80;;;;;;;;;;107675;290;42074;-44
2023/09/05 14:46:07;;;;;;;4.40;2.50;;;;;;;;;;107625;290;39139;-45
2023/09/05 14:48:42;;;;;;;6.50;3.40;;;;;;;;;;107692;290;39710;-44
2023/09/05 14:51:15;;;;;;;5.40;2.70;;;;;;;;;;107687;290;42885;-44
2023/09/05 14:53:52;;;;;;;4.60;2.70;;;;;;;;;;107651;290;41825;-44
2023/09/05 14:56:28;;;;;;;4.70;2.70;;;;;;;;;;107662;290;38708;-44
2023/09/05 14:59:05;;;;;;;5.10;2.60;;;;;;;;;;107705;290;40821;-44
2023/09/05 15:01:43;;;;;;;5.00;2.80;;;;;;;;;;107643;297;42994;-44
2023/09/05 15:04:19;;;;;;;5.50;2.70;;;;;;;;;;107681;294;43355;-45
2023/09/05 15:06:57;;;;;;;4.70;2.60;;;;;;;;;;107629;290;39137;-44
2023/09/05 15:09:32;;;;;;;5.40;2.60;;;;;;;;;;107633;294;39664;-43
2023/09/05 15:12:10;;;;;;;5.20;2.90;;;;;;;;;;107689;297;44199;-44
2023/09/05 15:14:46;;;;;;;5.20;2.80;;;;;;;;;;107686;290;42018;-45
2023/09/05 15:17:21;;;;;;;4.90;3.00;;;;;;;;;;107673;289;38751;-43
2023/09/05 15:19:57;;;;;;;5.10;2.70;;;;;;;;;;107689;289;39811;-42
2023/09/05 15:22:32;;;;;;;5.00;2.80;;;;;;;;;;107689;290;43058;-42
2023/09/05 15:25:21;;;;;;;4.30;2.60;;;;;;;;;;107038;290;893389;-40
2023/09/05 15:27:59;;;;;;;6.00;2.90;;;;;;;;;;109442;297;40180;-44
2023/09/05 15:30:33;;;;;;;4.80;2.80;;;;;;;;;;107703;298;40912;-42
2023/09/05 15:33:07;;;;;;;4.90;2.70;;;;;;;;;;107735;297;43995;-42
2023/09/05 15:35:41;;;;;;;5.60;3.10;;;;;;;;;;107675;298;42209;-42
2023/09/05 15:38:16;;;;;;;5.20;2.70;;;;;;;;;;107668;297;40147;-42